sensor_id;sensor_type;location;lat;lon;timestamp;pressure;altitude;pressure_sealevel;temperature;humidity
54042;BME280;41156;51.508;5.406;2023-03-20T00:02:21;101866.66;;;8.60;100.00
54042;BME280;41156;51.508;5.406;2023-03-20T00:05:23;101874.75;;;8.60;100.00
54042;BME280;41156;51.508;5.406;2023-03-20T00:08:24;101876.41;;;8.61;100.00
54042;BME280;41156;51.508;5.406;2023-03-20T00:11:29;101863.63;;;8.63;100.00
54042;BME280;41156;51.508;5.406;2023-03-20T00:14:32;101873.72;;;8.61;100.00
54042;BME280;41156;51.508;5.406;2023-03-20T00:17:33;101877.44;;;8.60;100.00
54042;BME280;41156;51.508;5.406;2023-03-20T00:20:33;101878.44;;;8.59;100.00
54042;BME280;41156;51.508;5.406;2023-03-20T00:23:33;101866.50;;;8.61;100.00
54042;BME280;41156;51.508;5.406;2023-03-20T00:26:35;101861.94;;;8.62;100.00
54042;BME280;41156;51.508;5.406;2023-03-20T00:29:35;101852.88;;;8.55;100.00
54042;BME280;41156;51.508;5.406;2023-03-20T00:32:36;101838.94;;;8.51;100.00
54042;BME280;41156;51.508;5.406;2023-03-20T00:35:36;101843.16;;;8.45;100.00
54042;BME280;41156;51.508;5.406;2023-03-20T00:38:36;101840.50;;;8.29;100.00
54042;BME280;41156;51.508;5.406;2023-03-20T00:44:48;101837.44;;;8.01;100.00
54042;BME280;41156;51.508;5.406;2023-03-20T00:47:50;101830.91;;;7.87;100.00
54042;BME280;41156;51.508;5.406;2023-03-20T00:50:51;101824.03;;;7.76;100.00
54042;BME280;41156;51.508;5.406;2023-03-20T00:53:51;101829.63;;;7.66;100.00
54042;BME280;41156;51.508;5.406;2023-03-20T00:57:04;101838.72;;;7.57;100.00
54042;BME280;41156;51.508;5.406;2023-03-20T01:00:25;101840.41;;;7.50;100.00
54042;BME280;41156;51.508;5.406;2023-03-20T01:03:30;101859.25;;;7.50;100.00
54042;BME280;41156;51.508;5.406;2023-03-20T01:06:31;101871.34;;;7.46;100.00
54042;BME280;41156;51.508;5.406;2023-03-20T01:09:32;101872.88;;;7.40;100.00
54042;BME280;41156;51.508;5.406;2023-03-20T01:12:32;101879.72;;;7.34;100.00
54042;BME280;41156;51.508;5.406;2023-03-20T01:15:33;101886.31;;;7.32;100.00
54042;BME280;41156;51.508;5.406;2023-03-20T01:18:33;101882.25;;;7.28;100.00
54042;BME280;41156;51.508;5.406;2023-03-20T01:21:33;101864.78;;;7.15;100.00
54042;BME280;41156;51.508;5.406;2023-03-20T01:24:34;101851.34;;;7.07;100.00
54042;BME280;41156;51.508;5.406;2023-03-20T01:27:34;101853.69;;;7.02;100.00
54042;BME280;41156;51.508;5.406;2023-03-20T01:30:34;101856.88;;;6.97;100.00
54042;BME280;41156;51.508;5.406;2023-03-20T01:33:35;101875.34;;;6.92;100.00
54042;BME280;41156;51.508;5.406;2023-03-20T01:36:36;101864.25;;;6.87;100.00
54042;BME280;41156;51.508;5.406;2023-03-20T01:39:37;101863.75;;;6.83;100.00
54042;BME280;41156;51.508;5.406;2023-03-20T01:42:37;101856.00;;;6.80;100.00
54042;BME280;41156;51.508;5.406;2023-03-20T01:45:38;101862.56;;;6.78;100.00
54042;BME280;41156;51.508;5.406;2023-03-20T01:51:55;101848.25;;;6.69;100.00
54042;BME280;41156;51.508;5.406;2023-03-20T01:54:56;101852.13;;;6.66;100.00
54042;BME280;41156;51.508;5.406;2023-03-20T01:57:59;101849.44;;;6.66;100.00
54042;BME280;41156;51.508;5.406;2023-03-20T02:01:01;101849.75;;;6.63;100.00
54042;BME280;41156;51.508;5.406;2023-03-20T02:04:02;101860.66;;;6.62;100.00
54042;BME280;41156;51.508;5.406;2023-03-20T02:07:04;101851.78;;;6.61;100.00
54042;BME280;41156;51.508;5.406;2023-03-20T02:10:12;101844.72;;;6.60;100.00
54042;BME280;41156;51.508;5.406;2023-03-20T02:13:14;101859.34;;;6.58;100.00
54042;BME280;41156;51.508;5.406;2023-03-20T02:16:16;101873.25;;;6.53;100.00
54042;BME280;41156;51.508;5.406;2023-03-20T02:19:24;101864.47;;;6.51;100.00
54042;BME280;41156;51.508;5.406;2023-03-20T02:32:46;101883.28;;;6.51;100.00
54042;BME280;41156;51.508;5.406;2023-03-20T02:45:35;101850.69;;;6.38;100.00
54042;BME280;41156;51.508;5.406;2023-03-20T02:52:27;101839.13;;;6.37;100.00
54042;BME280;41156;51.508;5.406;2023-03-20T02:56:10;101839.28;;;6.36;100.00
54042;BME280;41156;51.508;5.406;2023-03-20T02:59:38;101843.50;;;6.38;100.00
54042;BME280;41156;51.508;5.406;2023-03-20T03:02:53;101850.34;;;6.33;100.00
54042;BME280;41156;51.508;5.406;2023-03-20T03:06:02;101832.88;;;6.28;100.00
54042;BME280;41156;51.508;5.406;2023-03-20T03:09:17;101835.41;;;6.30;100.00
54042;BME280;41156;51.508;5.406;2023-03-20T03:12:27;101850.66;;;6.21;100.00
54042;BME280;41156;51.508;5.406;2023-03-20T03:15:33;101829.50;;;6.18;100.00
54042;BME280;41156;51.508;5.406;2023-03-20T03:18:37;101829.50;;;6.18;100.00
54042;BME280;41156;51.508;5.406;2023-03-20T03:21:40;101808.03;;;6.18;100.00
54042;BME280;41156;51.508;5.406;2023-03-20T03:24:48;101805.34;;;6.18;100.00
54042;BME280;41156;51.508;5.406;2023-03-20T03:28:00;101802.66;;;6.18;100.00
54042;BME280;41156;51.508;5.406;2023-03-20T03:31:04;101798.13;;;6.19;100.00
54042;BME280;41156;51.508;5.406;2023-03-20T03:34:11;101809.69;;;6.19;100.00
54042;BME280;41156;51.508;5.406;2023-03-20T03:40:43;101814.06;;;6.20;100.00
54042;BME280;41156;51.508;5.406;2023-03-20T03:44:12;101806.00;;;6.20;100.00
54042;BME280;41156;51.508;5.406;2023-03-20T03:48:24;101794.75;;;6.17;100.00
54042;BME280;41156;51.508;5.406;2023-03-20T03:51:03;101809.00;;;6.17;100.00
54042;BME280;41156;51.508;5.406;2023-03-20T03:54:31;101791.41;;;6.15;100.00
54042;BME280;41156;51.508;5.406;2023-03-20T03:57:48;101794.25;;;6.13;100.00
54042;BME280;41156;51.508;5.406;2023-03-20T04:00:52;101795.41;;;6.10;100.00
54042;BME280;41156;51.508;5.406;2023-03-20T04:03:57;101784.81;;;6.09;100.00
54042;BME280;41156;51.508;5.406;2023-03-20T04:07:02;101795.72;;;6.07;100.00
54042;BME280;41156;51.508;5.406;2023-03-20T04:10:02;101802.28;;;6.05;100.00
54042;BME280;41156;51.508;5.406;2023-03-20T04:13:03;101797.06;;;6.03;100.00
54042;BME280;41156;51.508;5.406;2023-03-20T04:16:03;101782.78;;;6.03;100.00
54042;BME280;41156;51.508;5.406;2023-03-20T04:19:03;101775.91;;;6.00;100.00
54042;BME280;41156;51.508;5.406;2023-03-20T04:22:04;101789.66;;;5.97;100.00
54042;BME280;41156;51.508;5.406;2023-03-20T04:25:06;101784.72;;;5.92;100.00
54042;BME280;41156;51.508;5.406;2023-03-20T04:28:07;101783.22;;;5.90;100.00
54042;BME280;41156;51.508;5.406;2023-03-20T04:31:08;101786.06;;;5.88;100.00
54042;BME280;41156;51.508;5.406;2023-03-20T04:34:08;101790.91;;;5.85;100.00
54042;BME280;41156;51.508;5.406;2023-03-20T04:37:08;101786.69;;;5.82;100.00
54042;BME280;41156;51.508;5.406;2023-03-20T04:40:09;101777.16;;;5.80;100.00
54042;BME280;41156;51.508;5.406;2023-03-20T04:43:10;101774.94;;;5.75;100.00
54042;BME280;41156;51.508;5.406;2023-03-20T04:46:10;101776.59;;;5.76;100.00
54042;BME280;41156;51.508;5.406;2023-03-20T04:49:10;101779.28;;;5.76;100.00
54042;BME280;41156;51.508;5.406;2023-03-20T04:52:10;101771.25;;;5.76;100.00
54042;BME280;41156;51.508;5.406;2023-03-20T04:55:11;101760.50;;;5.76;100.00
54042;BME280;41156;51.508;5.406;2023-03-20T04:58:11;101761.22;;;5.78;100.00
54042;BME280;41156;51.508;5.406;2023-03-20T05:01:11;101760.19;;;5.79;100.00
54042;BME280;41156;51.508;5.406;2023-03-20T05:04:12;101767.25;;;5.80;100.00
54042;BME280;41156;51.508;5.406;2023-03-20T05:07:12;101771.44;;;5.83;100.00
54042;BME280;41156;51.508;5.406;2023-03-20T05:10:12;101775.50;;;5.87;100.00
54042;BME280;41156;51.508;5.406;2023-03-20T05:13:13;101762.91;;;5.87;100.00
54042;BME280;41156;51.508;5.406;2023-03-20T05:16:13;101761.91;;;5.88;100.00
54042;BME280;41156;51.508;5.406;2023-03-20T05:19:13;101761.09;;;5.88;100.00
54042;BME280;41156;51.508;5.406;2023-03-20T05:22:13;101753.88;;;5.88;100.00
54042;BME280;41156;51.508;5.406;2023-03-20T05:25:14;101750.16;;;5.89;100.00
54042;BME280;41156;51.508;5.406;2023-03-20T05:28:14;101754.38;;;5.92;100.00
54042;BME280;41156;51.508;5.406;2023-03-20T05:31:15;101756.06;;;5.93;100.00
54042;BME280;41156;51.508;5.406;2023-03-20T05:34:15;101763.09;;;5.94;100.00
54042;BME280;41156;51.508;5.406;2023-03-20T05:37:15;101757.56;;;5.96;100.00
54042;BME280;41156;51.508;5.406;2023-03-20T05:40:16;101752.22;;;5.96;100.00
54042;BME280;41156;51.508;5.406;2023-03-20T05:43:18;101753.94;;;5.97;100.00
54042;BME280;41156;51.508;5.406;2023-03-20T05:46:18;101755.59;;;5.98;100.00
54042;BME280;41156;51.508;5.406;2023-03-20T05:49:18;101762.81;;;5.97;100.00
54042;BME280;41156;51.508;5.406;2023-03-20T05:52:19;101765.34;;;5.99;100.00
54042;BME280;41156;51.508;5.406;2023-03-20T05:55:19;101768.69;;;6.01;100.00
54042;BME280;41156;51.508;5.406;2023-03-20T05:58:19;101768.06;;;6.07;100.00
54042;BME280;41156;51.508;5.406;2023-03-20T06:01:20;101785.16;;;6.06;100.00
54042;BME280;41156;51.508;5.406;2023-03-20T06:04:23;101786.00;;;6.06;100.00
54042;BME280;41156;51.508;5.406;2023-03-20T06:07:23;101795.09;;;6.14;100.00
54042;BME280;41156;51.508;5.406;2023-03-20T06:10:23;101797.28;;;6.18;100.00
54042;BME280;41156;51.508;5.406;2023-03-20T06:13:24;101792.44;;;6.22;100.00
54042;BME280;41156;51.508;5.406;2023-03-20T06:16:24;101792.94;;;6.25;100.00
54042;BME280;41156;51.508;5.406;2023-03-20T06:19:25;101787.06;;;6.22;100.00
54042;BME280;41156;51.508;5.406;2023-03-20T06:22:26;101787.56;;;6.25;100.00
54042;BME280;41156;51.508;5.406;2023-03-20T06:25:26;101800.81;;;6.27;100.00
54042;BME280;41156;51.508;5.406;2023-03-20T06:28:27;101801.50;;;6.29;100.00
54042;BME280;41156;51.508;5.406;2023-03-20T06:31:27;101804.38;;;6.36;100.00
54042;BME280;41156;51.508;5.406;2023-03-20T06:34:27;101792.47;;;6.38;100.00
54042;BME280;41156;51.508;5.406;2023-03-20T06:37:29;101798.53;;;6.48;100.00
54042;BME280;41156;51.508;5.406;2023-03-20T06:40:29;101802.53;;;6.44;100.00
54042;BME280;41156;51.508;5.406;2023-03-20T06:43:29;101803.75;;;6.50;100.00
54042;BME280;41156;51.508;5.406;2023-03-20T06:46:30;101810.28;;;6.56;100.00
54042;BME280;41156;51.508;5.406;2023-03-20T06:49:30;101824.06;;;6.61;100.00
54042;BME280;41156;51.508;5.406;2023-03-20T06:52:31;101828.28;;;6.63;100.00
54042;BME280;41156;51.508;5.406;2023-03-20T06:55:31;101833.34;;;6.66;100.00
54042;BME280;41156;51.508;5.406;2023-03-20T06:58:31;101843.91;;;6.68;100.00
54042;BME280;41156;51.508;5.406;2023-03-20T07:01:32;101834.16;;;6.67;100.00
54042;BME280;41156;51.508;5.406;2023-03-20T07:04:32;101844.25;;;6.73;100.00
54042;BME280;41156;51.508;5.406;2023-03-20T07:07:32;101845.44;;;6.79;100.00
54042;BME280;41156;51.508;5.406;2023-03-20T07:10:34;101843.25;;;6.82;100.00
54042;BME280;41156;51.508;5.406;2023-03-20T07:13:34;101851.81;;;6.78;100.00
54042;BME280;41156;51.508;5.406;2023-03-20T07:16:35;101850.31;;;6.92;100.00
54042;BME280;41156;51.508;5.406;2023-03-20T07:19:35;101852.84;;;6.93;100.00
54042;BME280;41156;51.508;5.406;2023-03-20T07:22:36;101863.63;;;7.01;100.00
54042;BME280;41156;51.508;5.406;2023-03-20T07:25:36;101859.25;;;7.09;100.00
54042;BME280;41156;51.508;5.406;2023-03-20T07:28:38;101857.06;;;7.12;100.00
54042;BME280;41156;51.508;5.406;2023-03-20T07:31:38;101853.72;;;7.18;100.00
54042;BME280;41156;51.508;5.406;2023-03-20T07:34:39;101855.72;;;7.25;100.00
54042;BME280;41156;51.508;5.406;2023-03-20T07:37:39;101863.09;;;7.31;100.00
54042;BME280;41156;51.508;5.406;2023-03-20T07:40:40;101863.28;;;7.37;100.00
54042;BME280;41156;51.508;5.406;2023-03-20T07:43:40;101871.66;;;7.43;100.00
54042;BME280;41156;51.508;5.406;2023-03-20T07:46:40;101858.06;;;7.44;100.00
54042;BME280;41156;51.508;5.406;2023-03-20T07:49:41;101867.66;;;7.47;100.00
54042;BME280;41156;51.508;5.406;2023-03-20T07:52:48;101861.28;;;7.48;100.00
54042;BME280;41156;51.508;5.406;2023-03-20T07:55:50;101867.31;;;7.50;100.00
54042;BME280;41156;51.508;5.406;2023-03-20T07:58:50;101856.72;;;7.48;100.00
54042;BME280;41156;51.508;5.406;2023-03-20T08:01:51;101860.06;;;7.50;100.00
54042;BME280;41156;51.508;5.406;2023-03-20T08:04:51;101863.25;;;7.54;100.00
54042;BME280;41156;51.508;5.406;2023-03-20T08:07:51;101869.31;;;7.56;100.00
54042;BME280;41156;51.508;5.406;2023-03-20T08:10:52;101865.13;;;7.53;100.00
54042;BME280;41156;51.508;5.406;2023-03-20T08:13:52;101866.63;;;7.56;100.00
54042;BME280;41156;51.508;5.406;2023-03-20T08:16:52;101872.00;;;7.56;100.00
54042;BME280;41156;51.508;5.406;2023-03-20T08:19:52;101861.44;;;7.54;100.00
54042;BME280;41156;51.508;5.406;2023-03-20T08:22:53;101863.25;;;7.54;100.00
54042;BME280;41156;51.508;5.406;2023-03-20T08:25:53;101859.56;;;7.55;100.00
54042;BME280;41156;51.508;5.406;2023-03-20T08:28:53;101860.25;;;7.57;100.00
54042;BME280;41156;51.508;5.406;2023-03-20T08:31:54;101863.56;;;7.67;100.00
54042;BME280;41156;51.508;5.406;2023-03-20T08:34:55;101862.06;;;7.73;100.00
54042;BME280;41156;51.508;5.406;2023-03-20T08:37:55;101849.78;;;7.78;100.00
54042;BME280;41156;51.508;5.406;2023-03-20T08:40:55;101861.34;;;7.87;100.00
54042;BME280;41156;51.508;5.406;2023-03-20T08:43:56;101865.88;;;7.95;100.00
54042;BME280;41156;51.508;5.406;2023-03-20T08:46:56;101860.47;;;8.03;100.00
54042;BME280;41156;51.508;5.406;2023-03-20T08:49:57;101875.09;;;8.09;100.00
54042;BME280;41156;51.508;5.406;2023-03-20T08:52:57;101863.81;;;8.13;100.00
54042;BME280;41156;51.508;5.406;2023-03-20T08:55:57;101864.59;;;8.22;100.00
54042;BME280;41156;51.508;5.406;2023-03-20T08:58:58;101856.19;;;8.25;100.00
54042;BME280;41156;51.508;5.406;2023-03-20T09:01:58;101861.06;;;8.30;100.00
54042;BME280;41156;51.508;5.406;2023-03-20T09:04:58;101856.31;;;8.32;100.00
54042;BME280;41156;51.508;5.406;2023-03-20T09:07:59;101862.03;;;8.37;100.00
54042;BME280;41156;51.508;5.406;2023-03-20T09:10:59;101859.66;;;8.34;100.00
54042;BME280;41156;51.508;5.406;2023-03-20T09:13:59;101858.72;;;8.27;100.00
54042;BME280;41156;51.508;5.406;2023-03-20T09:17:00;101876.59;;;8.20;100.00
54042;BME280;41156;51.508;5.406;2023-03-20T09:20:00;101873.75;;;8.13;100.00
54042;BME280;41156;51.508;5.406;2023-03-20T09:23:01;101877.78;;;8.09;100.00
54042;BME280;41156;51.508;5.406;2023-03-20T09:26:01;101881.34;;;8.01;100.00
54042;BME280;41156;51.508;5.406;2023-03-20T09:29:01;101887.25;;;7.96;100.00
54042;BME280;41156;51.508;5.406;2023-03-20T09:32:02;101885.75;;;7.86;100.00
54042;BME280;41156;51.508;5.406;2023-03-20T09:35:03;101888.44;;;7.77;100.00
54042;BME280;41156;51.508;5.406;2023-03-20T09:38:04;101889.16;;;7.71;100.00
54042;BME280;41156;51.508;5.406;2023-03-20T09:41:05;101884.75;;;7.70;100.00
54042;BME280;41156;51.508;5.406;2023-03-20T09:44:23;101883.06;;;7.77;100.00
54042;BME280;41156;51.508;5.406;2023-03-20T09:47:45;101876.50;;;7.80;100.00
54042;BME280;41156;51.508;5.406;2023-03-20T09:50:57;101883.91;;;7.86;100.00
54042;BME280;41156;51.508;5.406;2023-03-20T09:54:25;101886.41;;;7.96;100.00
54042;BME280;41156;51.508;5.406;2023-03-20T09:57:41;101868.91;;;8.00;100.00
54042;BME280;41156;51.508;5.406;2023-03-20T10:00:44;101873.09;;;8.03;100.00
54042;BME280;41156;51.508;5.406;2023-03-20T10:03:55;101862.00;;;7.97;100.00
54042;BME280;41156;51.508;5.406;2023-03-20T10:06:56;101867.19;;;7.99;100.00
54042;BME280;41156;51.508;5.406;2023-03-20T10:09:56;101867.19;;;7.99;100.00
54042;BME280;41156;51.508;5.406;2023-03-20T10:19:35;101854.59;;;8.08;100.00
54042;BME280;41156;51.508;5.406;2023-03-20T10:22:44;101860.44;;;8.11;100.00
54042;BME280;41156;51.508;5.406;2023-03-20T10:25:48;101855.06;;;8.11;100.00
54042;BME280;41156;51.508;5.406;2023-03-20T10:28:57;101851.00;;;8.15;100.00
54042;BME280;41156;51.508;5.406;2023-03-20T10:32:21;101846.25;;;8.26;100.00
54042;BME280;41156;51.508;5.406;2023-03-20T10:36:12;101846.06;;;8.27;100.00
54042;BME280;41156;51.508;5.406;2023-03-20T10:39:21;101847.91;;;8.43;100.00
54042;BME280;41156;51.508;5.406;2023-03-20T10:42:29;101836.72;;;8.55;100.00
54042;BME280;41156;51.508;5.406;2023-03-20T10:45:47;101834.78;;;8.72;100.00
54042;BME280;41156;51.508;5.406;2023-03-20T10:49:02;101837.88;;;8.83;100.00
54042;BME280;41156;51.508;5.406;2023-03-20T10:52:16;101843.53;;;8.97;100.00
54042;BME280;41156;51.508;5.406;2023-03-20T10:55:19;101844.47;;;9.04;100.00
54042;BME280;41156;51.508;5.406;2023-03-20T10:58:23;101844.13;;;9.07;100.00
54042;BME280;41156;51.508;5.406;2023-03-20T11:01:25;101844.69;;;9.17;100.00
54042;BME280;41156;51.508;5.406;2023-03-20T11:04:26;101843.03;;;9.16;100.00
54042;BME280;41156;51.508;5.406;2023-03-20T11:07:36;101831.97;;;9.11;100.00
54042;BME280;41156;51.508;5.406;2023-03-20T11:10:38;101827.94;;;9.07;100.00
54042;BME280;41156;51.508;5.406;2023-03-20T11:13:42;101827.22;;;9.13;100.00
54042;BME280;41156;51.508;5.406;2023-03-20T11:16:47;101825.09;;;9.23;100.00
54042;BME280;41156;51.508;5.406;2023-03-20T11:19:50;101822.59;;;9.22;100.00
54042;BME280;41156;51.508;5.406;2023-03-20T11:22:57;101819.44;;;9.18;100.00
54042;BME280;41156;51.508;5.406;2023-03-20T11:26:03;101827.09;;;9.06;100.00
54042;BME280;41156;51.508;5.406;2023-03-20T11:29:08;101807.41;;;9.06;100.00
54042;BME280;41156;51.508;5.406;2023-03-20T11:32:30;101802.31;;;9.11;100.00
54042;BME280;41156;51.508;5.406;2023-03-20T11:35:31;101797.84;;;9.18;100.00
54042;BME280;41156;51.508;5.406;2023-03-20T11:38:32;101796.94;;;9.26;100.00
54042;BME280;41156;51.508;5.406;2023-03-20T11:41:33;101787.22;;;9.70;100.00
54042;BME280;41156;51.508;5.406;2023-03-20T11:44:34;101785.63;;;9.90;100.00
54042;BME280;41156;51.508;5.406;2023-03-20T11:47:35;101789.16;;;9.91;100.00
54042;BME280;41156;51.508;5.406;2023-03-20T11:51:01;101785.63;;;9.90;100.00
54042;BME280;41156;51.508;5.406;2023-03-20T11:54:14;101785.91;;;9.95;100.00
54042;BME280;41156;51.508;5.406;2023-03-20T11:57:35;101786.53;;;9.97;100.00
54042;BME280;41156;51.508;5.406;2023-03-20T12:00:38;101783.28;;;10.02;100.00
54042;BME280;41156;51.508;5.406;2023-03-20T12:03:51;101798.28;;;10.05;100.00
54042;BME280;41156;51.508;5.406;2023-03-20T12:10:11;101786.13;;;10.30;100.00
54042;BME280;41156;51.508;5.406;2023-03-20T12:13:15;101778.56;;;10.41;100.00
54042;BME280;41156;51.508;5.406;2023-03-20T12:16:20;101782.13;;;10.41;100.00
54042;BME280;41156;51.508;5.406;2023-03-20T12:19:27;101779.81;;;10.38;100.00
54042;BME280;41156;51.508;5.406;2023-03-20T12:22:33;101773.19;;;10.26;100.00
54042;BME280;41156;51.508;5.406;2023-03-20T12:25:43;101776.09;;;10.24;100.00
54042;BME280;41156;51.508;5.406;2023-03-20T12:28:53;101758.78;;;10.18;100.00
54042;BME280;41156;51.508;5.406;2023-03-20T12:32:05;101773.03;;;10.12;100.00
54042;BME280;41156;51.508;5.406;2023-03-20T12:35:22;101770.91;;;10.08;100.00
54042;BME280;41156;51.508;5.406;2023-03-20T12:38:32;101751.63;;;10.11;100.00
54042;BME280;41156;51.508;5.406;2023-03-20T12:48:23;101757.06;;;9.96;100.00
54042;BME280;41156;51.508;5.406;2023-03-20T12:51:39;101744.94;;;9.92;100.00
54042;BME280;41156;51.508;5.406;2023-03-20T12:58:24;101750.78;;;9.95;100.00
54042;BME280;41156;51.508;5.406;2023-03-20T13:01:37;101738.81;;;9.98;100.00
54042;BME280;41156;51.508;5.406;2023-03-20T13:08:35;101742.03;;;10.08;100.00
54042;BME280;41156;51.508;5.406;2023-03-20T13:11:51;101727.31;;;10.11;100.00
54042;BME280;41156;51.508;5.406;2023-03-20T13:15:11;101727.31;;;10.11;100.00
54042;BME280;41156;51.508;5.406;2023-03-20T13:21:54;101730.53;;;10.36;100.00
54042;BME280;41156;51.508;5.406;2023-03-20T13:28:21;101722.81;;;10.54;100.00
54042;BME280;41156;51.508;5.406;2023-03-20T13:31:50;101723.28;;;10.58;100.00
54042;BME280;41156;51.508;5.406;2023-03-20T13:38:16;101716.16;;;10.79;100.00
54042;BME280;41156;51.508;5.406;2023-03-20T13:41:17;101710.22;;;10.90;100.00
54042;BME280;41156;51.508;5.406;2023-03-20T13:44:18;101710.09;;;10.98;100.00
54042;BME280;41156;51.508;5.406;2023-03-20T13:47:23;101714.97;;;11.09;100.00
54042;BME280;41156;51.508;5.406;2023-03-20T13:50:42;101719.63;;;11.22;100.00
54042;BME280;41156;51.508;5.406;2023-03-20T13:57:20;101712.19;;;11.31;100.00
54042;BME280;41156;51.508;5.406;2023-03-20T14:00:50;101705.34;;;11.35;100.00
54042;BME280;41156;51.508;5.406;2023-03-20T14:03:58;101701.81;;;11.35;100.00
54042;BME280;41156;51.508;5.406;2023-03-20T19:45:27;101631.09;;;9.88;100.00
54042;BME280;41156;51.508;5.406;2023-03-20T19:48:29;101625.69;;;9.88;100.00
54042;BME280;41156;51.508;5.406;2023-03-20T19:51:30;101622.19;;;9.88;100.00
54042;BME280;41156;51.508;5.406;2023-03-20T19:54:30;101618.44;;;9.89;100.00
54042;BME280;41156;51.508;5.406;2023-03-20T19:57:30;101614.09;;;9.88;100.00
54042;BME280;41156;51.508;5.406;2023-03-20T20:00:33;101617.59;;;9.88;100.00
54042;BME280;41156;51.508;5.406;2023-03-20T20:03:33;101605.13;;;9.87;100.00
54042;BME280;41156;51.508;5.406;2023-03-20T20:06:34;101610.53;;;9.87;100.00
54042;BME280;41156;51.508;5.406;2023-03-20T20:09:34;101609.88;;;9.85;100.00
54042;BME280;41156;51.508;5.406;2023-03-20T20:12:34;101608.88;;;9.86;100.00
54042;BME280;41156;51.508;5.406;2023-03-20T20:15:38;101607.63;;;9.89;100.00
54042;BME280;41156;51.508;5.406;2023-03-20T20:18:38;101609.50;;;9.88;100.00
54042;BME280;41156;51.508;5.406;2023-03-20T20:21:38;101607.44;;;9.90;100.00
54042;BME280;41156;51.508;5.406;2023-03-20T20:24:38;101607.25;;;9.92;100.00
54042;BME280;41156;51.508;5.406;2023-03-20T20:27:40;101604.56;;;9.92;100.00
54042;BME280;41156;51.508;5.406;2023-03-20T20:30:40;101605.38;;;9.92;100.00
54042;BME280;41156;51.508;5.406;2023-03-20T20:33:41;101607.25;;;9.92;100.00
54042;BME280;41156;51.508;5.406;2023-03-20T20:36:41;101602.88;;;9.91;100.00
54042;BME280;41156;51.508;5.406;2023-03-20T20:39:43;101607.63;;;9.89;100.00
54042;BME280;41156;51.508;5.406;2023-03-20T20:42:44;101606.16;;;9.86;100.00
54042;BME280;41156;51.508;5.406;2023-03-20T20:45:48;101599.28;;;9.84;100.00
54042;BME280;41156;51.508;5.406;2023-03-20T20:48:48;101601.16;;;9.83;100.00
54042;BME280;41156;51.508;5.406;2023-03-20T20:51:51;101601.16;;;9.83;100.00
54042;BME280;41156;51.508;5.406;2023-03-20T20:54:51;101601.16;;;9.83;100.00
54042;BME280;41156;51.508;5.406;2023-03-20T20:57:52;101600.09;;;9.84;100.00
54042;BME280;41156;51.508;5.406;2023-03-20T21:00:54;101593.06;;;9.83;100.00
54042;BME280;41156;51.508;5.406;2023-03-20T21:03:56;101595.75;;;9.83;100.00
54042;BME280;41156;51.508;5.406;2023-03-20T21:06:57;101594.69;;;9.84;100.00
54042;BME280;41156;51.508;5.406;2023-03-20T21:09:57;101595.75;;;9.83;100.00
54042;BME280;41156;51.508;5.406;2023-03-20T21:12:57;101598.06;;;9.86;100.00
54042;BME280;41156;51.508;5.406;2023-03-20T21:15:58;101591.00;;;9.85;100.00
54042;BME280;41156;51.508;5.406;2023-03-20T21:18:59;101597.03;;;9.87;100.00
54042;BME280;41156;51.508;5.406;2023-03-20T21:21:59;101597.03;;;9.87;100.00
54042;BME280;41156;51.508;5.406;2023-03-20T21:25:00;101599.53;;;9.89;100.00
54042;BME280;41156;51.508;5.406;2023-03-20T21:28:00;101599.53;;;9.89;100.00
54042;BME280;41156;51.508;5.406;2023-03-20T21:31:01;101598.53;;;9.90;100.00
54042;BME280;41156;51.508;5.406;2023-03-20T21:34:02;101595.00;;;9.89;100.00
54042;BME280;41156;51.508;5.406;2023-03-20T21:37:06;101596.66;;;9.90;100.00
54042;BME280;41156;51.508;5.406;2023-03-20T21:40:06;101600.16;;;9.91;100.00
54042;BME280;41156;51.508;5.406;2023-03-20T21:43:08;101599.16;;;9.92;100.00
54042;BME280;41156;51.508;5.406;2023-03-20T21:46:08;101592.94;;;9.91;100.00
54042;BME280;41156;51.508;5.406;2023-03-20T21:49:09;101596.66;;;9.90;100.00
54042;BME280;41156;51.508;5.406;2023-03-20T21:52:11;101594.78;;;9.91;100.00
54042;BME280;41156;51.508;5.406;2023-03-20T21:55:12;101596.25;;;9.93;100.00
54042;BME280;41156;51.508;5.406;2023-03-20T21:58:12;101595.63;;;9.91;100.00
54042;BME280;41156;51.508;5.406;2023-03-20T22:01:12;101598.53;;;9.90;100.00
54042;BME280;41156;51.508;5.406;2023-03-20T22:04:13;101600.41;;;9.89;100.00
54042;BME280;41156;51.508;5.406;2023-03-20T22:07:14;101606.63;;;9.90;100.00
54042;BME280;41156;51.508;5.406;2023-03-20T22:10:14;101601.22;;;9.90;100.00
54042;BME280;41156;51.508;5.406;2023-03-20T22:13:15;101604.75;;;9.90;100.00
54042;BME280;41156;51.508;5.406;2023-03-20T22:16:15;101608.28;;;9.91;100.00
54042;BME280;41156;51.508;5.406;2023-03-20T22:19:16;101602.22;;;9.89;100.00
54042;BME280;41156;51.508;5.406;2023-03-20T22:22:16;101608.69;;;9.88;100.00
54042;BME280;41156;51.508;5.406;2023-03-20T22:25:17;101605.97;;;9.88;100.00
54042;BME280;41156;51.508;5.406;2023-03-20T22:28:17;101592.88;;;9.85;100.00
54042;BME280;41156;51.508;5.406;2023-03-20T22:31:17;101601.97;;;9.84;100.00
54042;BME280;41156;51.508;5.406;2023-03-20T22:34:18;101596.75;;;9.82;100.00
54042;BME280;41156;51.508;5.406;2023-03-20T22:37:18;101595.13;;;9.81;100.00
54042;BME280;41156;51.508;5.406;2023-03-20T22:40:19;101597.81;;;9.81;100.00
54042;BME280;41156;51.508;5.406;2023-03-20T22:43:19;101593.44;;;9.80;100.00
54042;BME280;41156;51.508;5.406;2023-03-20T22:46:20;101597.81;;;9.81;100.00
54042;BME280;41156;51.508;5.406;2023-03-20T22:49:20;101597.81;;;9.81;100.00
54042;BME280;41156;51.508;5.406;2023-03-20T22:52:20;101589.91;;;9.79;100.00